Time;durP1;ratioP1;P1;durP2;ratioP2;P2;SDS_P1;SDS_P2;PMS_P1;PMS_P2;Temp;Humidity;BMP_temperature;BMP_pressure;BME280_temperature;BME280_humidity;BME280_pressure;Samples;Min_cycle;Max_cycle;Signal;HPM_P1;HPM_P2
2021/04/28 12:13:29;;;;;;;11.00;5.65;;;19.30;42.60;;;;;;5071131;28;20726;-70
2021/04/28 12:15:55;;;;;;;7.72;4.97;;;19.00;43.40;;;;;;5067683;28;20058;-68
2021/04/28 12:18:31;;;;;;;10.68;5.22;;;19.10;43.60;;;;;;5062938;28;20469;-69
2021/04/28 12:21:00;;;;;;;12.07;5.15;;;19.20;43.20;;;;;;5069201;28;20465;-70
2021/04/28 12:23:26;;;;;;;7.72;5.05;;;19.40;42.80;;;;;;5075862;28;20032;-70
2021/04/28 12:25:52;;;;;;;9.98;5.35;;;19.40;42.90;;;;;;5065897;28;20054;-69
2021/04/28 12:28:18;;;;;;;8.05;6.25;;;19.50;42.70;;;;;;5072809;28;20249;-70
2021/04/28 12:30:48;;;;;;;15.20;5.78;;;19.70;42.20;;;;;;5071927;28;20021;-70
2021/04/28 12:33:14;;;;;;;8.40;5.45;;;19.60;42.30;;;;;;5080823;28;20050;-71
2021/04/28 12:35:40;;;;;;;11.20;5.10;;;19.50;42.80;;;;;;5070064;28;20083;-69
2021/04/28 12:38:13;;;;;;;8.75;5.45;;;19.50;42.50;;;;;;5081223;28;20028;-69
2021/04/28 12:40:57;;;;;;;14.48;5.32;;;19.30;42.80;;;;;;5073432;28;20128;-70
2021/04/28 12:43:27;;;;;;;10.85;5.40;;;19.20;43.60;;;;;;5068497;28;20112;-72
2021/04/28 12:46:04;;;;;;;12.75;5.78;;;19.40;43.40;;;;;;5068984;28;20024;-71
2021/04/28 12:49:10;;;;;;;13.60;5.07;;;19.60;42.80;;;;;;5072673;28;20029;-71
2021/04/28 12:51:46;;;;;;;6.93;4.90;;;19.80;42.20;;;;;;5062314;28;20060;-70
2021/04/28 12:54:13;;;;;;;10.18;5.10;;;20.10;41.90;;;;;;5072628;28;20028;-69
2021/04/28 12:56:40;;;;;;;8.10;5.15;;;20.00;41.80;;;;;;5085528;28;20031;-69
2021/04/28 12:59:21;;;;;;;7.55;4.43;;;20.10;41.50;;;;;;5086682;28;20415;-69
2021/04/28 13:02:05;;;;;;;12.20;5.65;;;20.20;41.30;;;;;;5070521;28;20036;-70
2021/04/28 13:04:32;;;;;;;11.85;5.65;;;20.00;41.90;;;;;;5058663;28;20337;-70
2021/04/28 13:07:09;;;;;;;12.98;5.55;;;19.50;42.70;;;;;;5073195;28;20041;-68
2021/04/28 13:09:35;;;;;;;13.73;5.40;;;19.30;43.40;;;;;;5065987;28;20478;-70
2021/04/28 13:12:01;;;;;;;13.57;5.05;;;19.50;43.30;;;;;;5060628;28;20147;-69
2021/04/28 13:14:49;;;;;;;9.07;4.38;;;20.00;42.30;;;;;;5063507;28;20035;-66
2021/04/28 13:17:15;;;;;;;8.77;4.90;;;20.10;41.90;;;;;;5071127;28;20029;-68
2021/04/28 13:19:41;;;;;;;6.50;4.65;;;20.10;41.70;;;;;;5083173;28;20029;-69
2021/04/28 13:22:16;;;;;;;11.93;4.78;;;20.10;41.90;;;;;;5081339;28;20048;-69
2021/04/28 13:24:51;;;;;;;7.95;4.80;;;20.00;42.00;;;;;;5065534;28;20028;-70
2021/04/28 13:27:26;;;;;;;8.60;4.70;;;20.10;41.90;;;;;;5057332;28;20032;-68
2021/04/28 13:30:12;;;;;;;5.97;4.20;;;20.00;42.20;;;;;;5057838;28;20071;-67
2021/04/28 13:32:40;;;;;;;6.82;4.18;;;19.90;42.40;;;;;;5062404;28;20331;-68
2021/04/28 13:35:30;;;;;;;7.45;4.18;;;19.90;42.50;;;;;;5072231;28;20035;-69
2021/04/28 13:37:58;;;;;;;8.18;4.28;;;20.00;42.00;;;;;;5032542;28;20032;-69
2021/04/28 13:40:40;;;;;;;6.68;4.03;;;20.10;42.10;;;;;;5048802;28;20025;-70
2021/04/28 13:43:07;;;;;;;7.82;3.85;;;20.10;42.10;;;;;;5059082;28;20502;-68
2021/04/28 13:45:34;;;;;;;5.72;4.13;;;20.20;41.70;;;;;;5071100;28;20107;-69
2021/04/28 13:48:00;;;;;;;11.30;3.65;;;20.00;42.10;;;;;;5073939;28;20073;-69
2021/04/28 13:50:26;;;;;;;8.90;3.85;;;19.80;42.20;;;;;;5064001;28;20104;-69
2021/04/28 13:52:52;;;;;;;7.28;3.70;;;19.70;42.60;;;;;;5053377;28;20060;-69
2021/04/28 13:55:17;;;;;;;10.50;3.45;;;19.80;42.60;;;;;;5058930;28;20056;-70
2021/04/28 13:57:43;;;;;;;8.50;3.03;;;19.80;42.40;;;;;;5054196;28;20115;-69
2021/04/28 14:00:14;;;;;;;7.97;3.60;;;19.70;42.40;;;;;;5066980;28;20067;-70
2021/04/28 14:02:47;;;;;;;5.88;3.30;;;19.80;42.60;;;;;;5054908;28;20473;-66
2021/04/28 14:05:15;;;;;;;5.85;3.33;;;19.70;42.60;;;;;;5055934;28;20053;-67
2021/04/28 14:07:42;;;;;;;5.55;3.00;;;19.70;42.70;;;;;;5055931;28;20028;-67
2021/04/28 14:10:09;;;;;;;6.15;3.17;;;19.70;42.80;;;;;;5053504;28;20016;-67
2021/04/28 14:12:35;;;;;;;5.55;3.85;;;19.70;42.90;;;;;;5052839;28;20066;-68
2021/04/28 14:15:01;;;;;;;6.55;3.80;;;19.50;43.80;;;;;;5053362;28;20036;-67
2021/04/28 14:17:27;;;;;;;5.55;3.72;;;19.50;43.40;;;;;;5053483;28;20067;-69
2021/04/28 14:19:52;;;;;;;6.30;3.65;;;19.40;43.70;;;;;;5055767;28;20032;-68
2021/04/28 14:22:19;;;;;;;8.55;3.75;;;19.10;44.10;;;;;;5052871;28;20067;-67
2021/04/28 14:24:45;;;;;;;5.28;3.60;;;19.10;44.30;;;;;;5050577;28;20029;-66
2021/04/28 14:27:11;;;;;;;6.10;3.65;;;19.20;44.20;;;;;;5049655;28;20166;-69
2021/04/28 14:29:37;;;;;;;5.15;3.80;;;19.20;44.20;;;;;;5052794;28;20032;-68
2021/04/28 14:32:02;;;;;;;7.35;3.10;;;19.00;44.30;;;;;;5051249;28;20060;-67
2021/04/28 14:34:28;;;;;;;5.45;3.53;;;18.90;44.50;;;;;;5051299;28;20037;-69
2021/04/28 14:36:54;;;;;;;7.88;3.50;;;18.90;45.30;;;;;;5052329;28;20353;-68
2021/04/28 14:39:20;;;;;;;8.02;3.75;;;19.00;44.50;;;;;;5051037;28;20516;-70
2021/04/28 14:41:46;;;;;;;8.88;3.47;;;19.30;44.10;;;;;;5050069;28;20085;-69
2021/04/28 14:44:12;;;;;;;6.57;3.15;;;19.40;43.70;;;;;;5048590;28;20052;-67
2021/04/28 14:46:38;;;;;;;5.18;3.05;;;19.30;43.80;;;;;;5047773;28;20032;-67
2021/04/28 14:49:05;;;;;;;7.13;3.05;;;19.20;44.10;;;;;;5043769;28;20028;-67
2021/04/28 14:51:31;;;;;;;5.50;3.60;;;19.30;43.90;;;;;;5047362;28;20112;-71
2021/04/28 14:53:57;;;;;;;4.22;3.00;;;19.30;44.10;;;;;;5051744;28;20103;-74
2021/04/28 14:56:23;;;;;;;4.60;3.40;;;19.30;44.20;;;;;;5048652;28;20021;-71
2021/04/28 14:58:50;;;;;;;6.03;3.45;;;19.30;44.10;;;;;;5047096;28;20482;-73
2021/04/28 15:01:56;;;;;;;5.40;3.53;;;19.30;44.10;;;;;;5046718;28;20716;-69
2021/04/28 15:04:21;;;;;;;7.53;4.10;;;19.40;43.90;;;;;;5049721;28;20044;-74
2021/04/28 15:06:48;;;;;;;8.40;3.30;;;19.30;43.70;;;;;;5048174;28;20029;-77
2021/04/28 15:09:16;;;;;;;8.40;3.00;;;19.40;43.70;;;;;;5052901;28;20052;-68
2021/04/28 15:11:42;;;;;;;8.93;3.80;;;19.30;44.00;;;;;;5052313;28;20505;-74
2021/04/28 15:14:07;;;;;;;4.18;2.92;;;19.30;44.10;;;;;;5051602;28;20013;-78
2021/04/28 15:16:33;;;;;;;5.40;2.90;;;19.30;44.10;;;;;;5053037;28;20373;-78
2021/04/28 15:18:59;;;;;;;4.95;2.90;;;19.30;44.10;;;;;;5052168;28;20470;-79
2021/04/28 15:21:26;;;;;;;5.35;3.38;;;19.30;44.10;;;;;;5053564;28;20445;-76
2021/04/28 15:23:53;;;;;;;5.88;3.30;;;19.10;44.50;;;;;;5054210;28;20035;-77
2021/04/28 15:26:19;;;;;;;5.45;2.80;;;19.00;44.80;;;;;;5052925;28;20128;-74
2021/04/28 15:28:46;;;;;;;5.85;3.00;;;18.90;45.10;;;;;;5052538;28;20032;-75
2021/04/28 15:31:12;;;;;;;5.25;3.17;;;18.80;45.30;;;;;;5055438;28;20024;-73
2021/04/28 15:33:38;;;;;;;6.78;3.10;;;18.70;45.70;;;;;;5053844;28;20482;-76
2021/04/28 15:36:05;;;;;;;4.70;3.05;;;18.60;45.80;;;;;;5048147;28;20032;-76
2021/04/28 15:38:31;;;;;;;7.72;3.22;;;18.70;45.80;;;;;;5048105;28;20025;-78
2021/04/28 15:40:58;;;;;;;3.75;3.00;;;18.80;45.40;;;;;;5047457;28;20394;-76
2021/04/28 15:43:24;;;;;;;3.78;2.88;;;18.80;45.50;;;;;;5049811;28;20037;-76
2021/04/28 15:45:55;;;;;;;5.72;3.10;;;18.80;45.40;;;;;;5053172;28;20090;-77
2021/04/28 15:48:21;;;;;;;8.70;3.03;;;18.90;45.40;;;;;;5048768;28;20086;-77
2021/04/28 15:50:47;;;;;;;14.93;3.92;;;18.80;45.50;;;;;;5048384;28;20075;-63
2021/04/28 15:53:13;;;;;;;9.40;3.28;;;18.70;45.80;;;;;;5048859;28;20481;-63
2021/04/28 15:55:39;;;;;;;5.40;3.00;;;18.70;46.50;;;;;;5047348;28;20036;-64
2021/04/28 15:58:05;;;;;;;3.97;3.05;;;18.60;46.10;;;;;;5049152;28;20032;-65
2021/04/28 16:00:31;;;;;;;4.68;3.03;;;18.60;46.80;;;;;;5046400;28;20027;-65
2021/04/28 16:03:03;;;;;;;4.50;2.83;;;18.50;46.30;;;;;;5046630;28;20493;-63
2021/04/28 16:05:29;;;;;;;6.93;3.60;;;18.40;46.80;;;;;;5045015;28;20028;-65
2021/04/28 16:07:55;;;;;;;6.18;2.80;;;18.40;46.80;;;;;;5045601;28;20029;-64
2021/04/28 16:10:20;;;;;;;7.32;3.28;;;18.30;47.10;;;;;;5043565;28;20536;-66
2021/04/28 16:12:47;;;;;;;4.03;2.70;;;18.20;47.00;;;;;;5048358;28;20053;-65
2021/04/28 16:15:14;;;;;;;4.10;2.90;;;18.20;47.10;;;;;;5047441;28;20020;-64
2021/04/28 16:17:40;;;;;;;6.75;3.10;;;18.20;47.10;;;;;;5046249;28;20116;-64
2021/04/28 16:20:06;;;;;;;5.50;3.08;;;18.20;47.30;;;;;;5047469;28;20032;-64
2021/04/28 16:22:32;;;;;;;9.00;3.42;;;18.10;47.40;;;;;;5043994;28;20013;-65
2021/04/28 16:24:58;;;;;;;7.35;3.30;;;18.10;47.50;;;;;;5045959;28;20029;-62
2021/04/28 16:27:24;;;;;;;5.07;3.25;;;18.10;47.70;;;;;;5050255;28;20021;-63
2021/04/28 16:29:50;;;;;;;11.88;3.05;;;18.00;47.80;;;;;;5053043;28;20051;-64
2021/04/28 16:32:16;;;;;;;5.18;3.00;;;18.10;47.60;;;;;;5050471;28;20074;-67
2021/04/28 16:34:42;;;;;;;5.85;3.13;;;18.20;47.40;;;;;;5049964;28;20052;-63
2021/04/28 16:37:08;;;;;;;6.10;2.88;;;18.00;47.90;;;;;;5049692;28;20037;-62
2021/04/28 16:39:34;;;;;;;5.47;3.10;;;17.90;48.00;;;;;;5046875;28;20021;-63
2021/04/28 16:42:00;;;;;;;3.55;2.80;;;18.00;47.90;;;;;;5046743;28;20025;-64
2021/04/28 16:44:26;;;;;;;5.32;2.90;;;17.90;48.00;;;;;;5051624;28;20482;-64
2021/04/28 16:46:52;;;;;;;4.72;2.88;;;18.00;48.00;;;;;;5048611;28;20032;-63
2021/04/28 16:49:18;;;;;;;5.35;3.10;;;17.90;48.00;;;;;;5044568;28;20397;-64
2021/04/28 16:51:45;;;;;;;9.02;3.35;;;17.90;48.00;;;;;;5047962;28;20029;-66
2021/04/28 16:54:11;;;;;;;9.43;3.92;;;17.90;48.00;;;;;;5038258;28;20865;-64
2021/04/28 16:56:37;;;;;;;7.28;3.67;;;17.90;48.20;;;;;;5038911;28;20314;-65
2021/04/28 16:59:03;;;;;;;7.03;3.30;;;17.90;48.20;;;;;;5051646;28;20106;-67
2021/04/28 17:01:29;;;;;;;7.28;3.28;;;17.80;48.30;;;;;;5048428;28;20219;-64
2021/04/28 17:03:56;;;;;;;4.55;3.50;;;17.80;48.60;;;;;;5051082;28;20025;-63
2021/04/28 17:06:21;;;;;;;5.57;3.67;;;17.70;48.80;;;;;;5040786;28;20029;-66
2021/04/28 17:08:48;;;;;;;6.97;3.50;;;17.60;49.00;;;;;;5042513;28;20453;-62
2021/04/28 17:11:15;;;;;;;5.05;3.70;;;17.50;49.50;;;;;;5052823;28;20044;-58
2021/04/28 17:13:41;;;;;;;5.07;3.58;;;17.40;49.90;;;;;;5050973;28;20049;-60
2021/04/28 17:16:09;;;;;;;5.30;3.42;;;17.20;50.30;;;;;;5051838;28;20075;-57
2021/04/28 17:18:35;;;;;;;6.90;4.00;;;17.10;50.60;;;;;;5045664;28;20047;-58
2021/04/28 17:21:01;;;;;;;5.13;3.78;;;17.10;50.70;;;;;;5052545;28;20457;-58
2021/04/28 17:23:26;;;;;;;5.50;3.45;;;17.00;51.00;;;;;;5046941;28;20385;-61
2021/04/28 17:25:52;;;;;;;5.93;3.53;;;16.90;51.50;;;;;;5051377;28;20478;-60
2021/04/28 17:28:19;;;;;;;5.22;3.50;;;16.80;51.90;;;;;;5049704;28;20535;-66
2021/04/28 17:30:44;;;;;;;7.00;3.58;;;16.70;52.10;;;;;;5053874;28;20056;-61
2021/04/28 17:33:10;;;;;;;4.65;3.60;;;16.70;52.20;;;;;;5050115;28;20482;-64
2021/04/28 17:35:36;;;;;;;4.85;4.10;;;16.70;52.50;;;;;;5051503;28;20060;-60
2021/04/28 17:38:02;;;;;;;6.25;4.18;;;16.60;52.50;;;;;;5053804;28;20086;-61
2021/04/28 17:40:28;;;;;;;5.38;4.38;;;16.70;52.50;;;;;;5052800;28;20036;-60
2021/04/28 17:42:55;;;;;;;11.45;4.03;;;16.70;52.40;;;;;;5053367;28;20044;-60
2021/04/28 17:45:21;;;;;;;7.88;4.40;;;16.70;52.50;;;;;;5054368;28;20074;-68
2021/04/28 17:47:46;;;;;;;7.75;3.90;;;16.70;52.80;;;;;;5048857;28;20442;-59
2021/04/28 17:50:12;;;;;;;5.00;4.13;;;16.60;52.90;;;;;;5053827;28;20529;-64
2021/04/28 17:52:38;;;;;;;7.28;4.57;;;16.60;53.00;;;;;;5051223;28;20033;-63
2021/04/28 17:55:05;;;;;;;7.30;4.28;;;16.50;53.10;;;;;;5054266;28;20082;-62
2021/04/28 17:57:32;;;;;;;5.50;4.15;;;16.50;53.40;;;;;;5053470;28;20465;-62
2021/04/28 17:59:58;;;;;;;8.63;4.40;;;16.50;53.50;;;;;;5053144;28;20032;-60
2021/04/28 18:02:24;;;;;;;7.07;4.78;;;16.40;53.80;;;;;;5049008;28;20390;-71
2021/04/28 18:04:49;;;;;;;6.68;4.40;;;16.40;54.00;;;;;;5045632;28;20175;-63
2021/04/28 18:07:18;;;;;;;6.40;4.80;;;16.30;54.10;;;;;;5050634;28;20047;-68
2021/04/28 18:09:45;;;;;;;9.50;4.90;;;16.20;54.40;;;;;;5052641;28;20071;-59
2021/04/28 18:12:14;;;;;;;7.07;4.80;;;16.20;54.50;;;;;;5065180;28;20056;-57
2021/04/28 18:14:40;;;;;;;10.35;4.70;;;16.10;54.60;;;;;;5056305;28;20369;-61
2021/04/28 18:17:07;;;;;;;6.18;4.82;;;16.10;54.90;;;;;;5064010;28;20070;-60
2021/04/28 18:19:33;;;;;;;6.82;4.70;;;16.10;55.20;;;;;;5051719;28;20036;-61
2021/04/28 18:21:59;;;;;;;7.28;4.32;;;16.00;55.50;;;;;;5039457;28;20033;-61
2021/04/28 18:24:25;;;;;;;6.88;4.70;;;15.90;55.80;;;;;;5044127;28;20048;-62
2021/04/28 18:26:51;;;;;;;10.23;5.38;;;15.90;56.20;;;;;;5060838;28;20058;-60
2021/04/28 18:29:17;;;;;;;6.78;5.13;;;15.90;56.10;;;;;;5048844;28;20025;-62
2021/04/28 18:31:43;;;;;;;6.93;5.35;;;15.80;56.20;;;;;;5049283;28;20074;-60
2021/04/28 18:34:09;;;;;;;6.57;5.00;;;15.80;56.40;;;;;;5048262;28;20040;-62
2021/04/28 18:36:35;;;;;;;8.00;4.93;;;15.80;56.50;;;;;;5044362;28;20102;-61
2021/04/28 18:39:00;;;;;;;9.13;5.80;;;15.70;56.50;;;;;;5046922;28;20025;-62
2021/04/28 18:41:26;;;;;;;8.25;5.50;;;15.80;56.60;;;;;;5046282;28;20083;-61
2021/04/28 18:43:53;;;;;;;6.30;5.00;;;15.70;56.60;;;;;;5051276;28;20028;-61
2021/04/28 18:46:19;;;;;;;8.25;5.68;;;15.70;57.00;;;;;;5050883;28;20052;-60
2021/04/28 18:48:45;;;;;;;7.68;5.82;;;15.70;57.00;;;;;;5046880;28;20505;-62
2021/04/28 18:51:10;;;;;;;10.38;5.28;;;15.70;57.00;;;;;;5049051;28;20527;-61
2021/04/28 18:53:36;;;;;;;8.18;5.70;;;15.70;57.10;;;;;;5047402;28;20088;-61
2021/04/28 18:56:03;;;;;;;10.10;5.57;;;15.60;57.40;;;;;;5051271;28;20029;-62
2021/04/28 18:58:29;;;;;;;7.97;5.82;;;15.60;57.40;;;;;;5048765;28;20029;-61
2021/04/28 19:00:56;;;;;;;8.80;5.70;;;15.50;57.80;;;;;;5048909;28;20084;-65
2021/04/28 19:03:22;;;;;;;7.95;6.00;;;15.50;58.00;;;;;;5045691;28;20156;-66
2021/04/28 19:05:48;;;;;;;8.93;6.40;;;15.40;58.50;;;;;;5049524;28;20021;-63
2021/04/28 19:08:13;;;;;;;8.45;6.47;;;15.30;58.90;;;;;;5051987;28;20124;-60
2021/04/28 19:10:40;;;;;;;9.25;6.10;;;15.30;59.20;;;;;;5048850;28;20025;-62
2021/04/28 19:13:06;;;;;;;10.00;6.88;;;15.30;59.30;;;;;;5049475;28;20080;-62
2021/04/28 19:15:31;;;;;;;10.98;6.80;;;15.30;59.50;;;;;;5048266;28;20114;-61
2021/04/28 19:17:57;;;;;;;9.63;7.53;;;15.20;59.80;;;;;;5047056;28;20025;-62
2021/04/28 19:20:23;;;;;;;9.55;6.82;;;15.20;60.10;;;;;;5047731;28;20071;-62
2021/04/28 19:22:48;;;;;;;13.88;7.47;;;15.10;60.40;;;;;;5049479;28;20478;-61
2021/04/28 19:25:16;;;;;;;10.80;7.28;;;15.10;60.50;;;;;;5050469;28;20454;-63
2021/04/28 19:27:41;;;;;;;11.45;7.50;;;15.00;60.60;;;;;;5050444;28;20021;-62
2021/04/28 19:30:09;;;;;;;12.55;7.80;;;15.00;61.00;;;;;;5049378;28;20032;-61
2021/04/28 19:32:36;;;;;;;13.18;8.15;;;14.90;61.10;;;;;;5049857;28;20032;-60
2021/04/28 19:35:04;;;;;;;10.23;8.07;;;14.90;61.10;;;;;;5049527;28;20351;-62
2021/04/28 19:37:30;;;;;;;9.75;7.95;;;14.90;61.20;;;;;;5050219;28;20036;-61
2021/04/28 19:39:56;;;;;;;10.88;8.70;;;14.90;61.30;;;;;;5049433;28;20025;-62
2021/04/28 19:42:21;;;;;;;10.70;8.52;;;15.00;61.30;;;;;;5050622;28;20171;-62
2021/04/28 19:44:47;;;;;;;14.00;9.40;;;14.90;61.40;;;;;;5051569;28;20377;-61
2021/04/28 19:47:14;;;;;;;12.00;9.30;;;14.90;61.30;;;;;;5048324;28;20028;-61
2021/04/28 19:49:40;;;;;;;11.55;9.13;;;14.90;61.70;;;;;;5043904;28;20059;-61
2021/04/28 19:52:06;;;;;;;11.68;8.45;;;14.80;62.00;;;;;;5035477;28;20033;-61
2021/04/28 19:57:16;;;;;;;15.98;9.43;;;14.70;62.80;;;;;;5031989;28;20544;-60
2021/04/28 19:59:41;;;;;;;15.80;9.35;;;14.70;62.80;;;;;;5043597;28;20033;-62
2021/04/28 20:02:07;;;;;;;13.38;9.45;;;14.70;63.00;;;;;;5047940;28;20034;-60
2021/04/28 20:04:34;;;;;;;14.88;10.00;;;14.60;62.80;;;;;;5034622;28;20032;-61
2021/04/28 20:07:00;;;;;;;14.90;9.85;;;14.60;62.90;;;;;;5034999;28;20166;-61
2021/04/28 20:09:27;;;;;;;13.25;9.93;;;14.60;63.10;;;;;;5048077;28;20025;-61
2021/04/28 20:11:53;;;;;;;13.82;9.80;;;14.60;63.10;;;;;;5051309;28;20057;-60
2021/04/28 20:14:19;;;;;;;17.70;10.55;;;14.60;63.30;;;;;;5044016;28;20040;-61
2021/04/28 20:16:44;;;;;;;13.73;10.07;;;14.60;63.40;;;;;;5044447;28;20556;-61
2021/04/28 20:19:10;;;;;;;15.35;10.43;;;14.50;63.70;;;;;;5044287;28;20032;-60
2021/04/28 20:21:54;;;;;;;15.10;10.98;;;14.50;63.70;;;;;;5030855;28;20061;-61
2021/04/28 20:24:20;;;;;;;17.08;11.23;;;14.50;64.10;;;;;;5040124;28;20025;-61
2021/04/28 20:26:45;;;;;;;18.02;11.63;;;14.40;64.60;;;;;;5029583;28;20276;-60
2021/04/28 20:29:12;;;;;;;23.77;16.48;;;14.30;65.00;;;;;;5031368;28;20033;-60
2021/04/28 20:31:38;;;;;;;22.38;13.35;;;14.20;65.50;;;;;;5041920;28;20021;-60
2021/04/28 20:34:04;;;;;;;24.00;16.50;;;14.20;65.80;;;;;;5035322;28;20436;-60
2021/04/28 20:36:29;;;;;;;17.92;11.43;;;14.20;65.90;;;;;;5034805;28;20096;-60
2021/04/28 20:38:55;;;;;;;20.58;11.85;;;14.10;66.20;;;;;;5034402;28;20063;-61
2021/04/28 20:41:21;;;;;;;19.13;13.32;;;14.10;66.40;;;;;;5053174;28;20100;-60
2021/04/28 20:43:47;;;;;;;20.08;13.45;;;14.10;66.50;;;;;;5042118;28;20306;-61
2021/04/28 20:46:13;;;;;;;21.83;13.57;;;14.10;66.60;;;;;;5055293;28;20095;-60
2021/04/28 20:48:39;;;;;;;22.52;13.75;;;14.10;66.60;;;;;;5053798;28;20040;-60
2021/04/28 20:51:06;;;;;;;23.58;13.77;;;14.00;66.80;;;;;;5054004;28;20155;-61
2021/04/28 20:53:33;;;;;;;19.25;13.48;;;14.00;67.00;;;;;;5050697;28;20032;-61
2021/04/28 20:55:58;;;;;;;23.02;13.70;;;14.00;67.10;;;;;;5054885;28;20040;-60
2021/04/28 20:58:24;;;;;;;21.50;12.85;;;14.00;67.30;;;;;;5041915;28;20463;-61
2021/04/28 21:00:50;;;;;;;25.60;14.05;;;14.00;67.30;;;;;;5038539;28;20477;-60
2021/04/28 21:03:16;;;;;;;24.40;14.07;;;14.00;67.50;;;;;;5037204;28;20060;-60
2021/04/28 21:05:43;;;;;;;27.45;13.98;;;13.90;67.60;;;;;;5044696;28;20053;-59
2021/04/28 21:08:09;;;;;;;26.77;14.05;;;13.90;67.70;;;;;;5054757;28;20032;-61
2021/04/28 21:10:35;;;;;;;27.25;14.13;;;13.90;68.00;;;;;;5050048;28;20053;-61
2021/04/28 21:13:19;;;;;;;30.88;16.08;;;13.90;68.40;;;;;;5039212;28;20084;-60
2021/04/28 21:15:45;;;;;;;24.42;14.95;;;13.80;68.70;;;;;;5033885;28;20025;-61
2021/04/28 21:18:12;;;;;;;28.73;15.55;;;13.80;68.60;;;;;;5047038;28;20143;-60
2021/04/28 21:20:40;;;;;;;28.88;15.80;;;13.90;68.70;;;;;;5033334;28;20037;-61
2021/04/28 21:23:06;;;;;;;27.73;15.88;;;13.90;68.60;;;;;;5033974;28;20116;-61
2021/04/28 21:25:32;;;;;;;30.83;15.40;;;13.80;68.80;;;;;;5041598;28;20466;-60
2021/04/28 21:27:58;;;;;;;30.33;16.23;;;13.80;69.00;;;;;;5054656;28;20021;-60
2021/04/28 21:30:27;;;;;;;31.63;16.25;;;13.80;69.20;;;;;;5036502;28;20377;-61
2021/04/28 21:32:53;;;;;;;28.45;16.00;;;13.70;69.30;;;;;;5034056;28;20462;-60
2021/04/28 21:35:19;;;;;;;32.47;15.82;;;13.80;69.30;;;;;;5045066;28;20035;-61
2021/04/28 21:40:29;;;;;;;33.20;17.15;;;13.70;69.40;;;;;;5046694;28;20397;-60
2021/04/28 21:42:54;;;;;;;32.10;15.93;;;13.70;69.50;;;;;;5035416;28;20029;-61
2021/04/28 21:45:20;;;;;;;30.92;16.25;;;13.70;69.60;;;;;;5053452;28;20130;-60
2021/04/28 21:47:47;;;;;;;32.63;17.38;;;13.70;69.60;;;;;;5053672;28;20025;-60
2021/04/28 21:50:13;;;;;;;33.10;17.25;;;13.70;69.70;;;;;;5053126;28;20493;-61
2021/04/28 21:52:40;;;;;;;33.03;17.35;;;13.70;69.60;;;;;;5041482;28;20289;-60
2021/04/28 21:55:09;;;;;;;31.98;16.95;;;13.70;69.70;;;;;;5040106;28;20098;-60
2021/04/28 21:57:35;;;;;;;33.30;17.15;;;13.80;69.70;;;;;;5050788;28;20029;-60
2021/04/28 22:00:00;;;;;;;30.15;16.25;;;13.70;69.80;;;;;;5052223;28;20021;-60
2021/04/28 22:02:26;;;;;;;30.05;16.77;;;13.70;70.00;;;;;;5051117;28;20463;-59
2021/04/28 22:04:52;;;;;;;30.60;16.90;;;13.70;70.10;;;;;;5051622;28;20636;-60
2021/04/28 22:07:17;;;;;;;28.45;16.83;;;13.70;70.10;;;;;;5051131;28;20029;-60
2021/04/28 22:09:43;;;;;;;33.50;17.17;;;13.70;70.20;;;;;;5051643;28;20023;-60
2021/04/28 22:12:09;;;;;;;32.88;18.20;;;13.70;70.10;;;;;;5048009;28;20468;-60
2021/04/28 22:14:35;;;;;;;30.45;17.17;;;13.70;70.10;;;;;;5052283;28;20043;-62
2021/04/28 22:17:01;;;;;;;27.58;16.80;;;13.70;70.30;;;;;;5053811;28;20079;-60
2021/04/28 22:19:27;;;;;;;27.73;17.27;;;13.60;70.30;;;;;;5052133;28;20075;-60
2021/04/28 22:21:53;;;;;;;29.50;17.63;;;13.60;70.50;;;;;;5051335;28;20235;-60
2021/04/28 22:24:19;;;;;;;30.75;17.25;;;13.60;70.40;;;;;;5050805;28;20052;-60
2021/04/28 22:26:45;;;;;;;27.30;16.75;;;13.60;70.70;;;;;;5051056;28;20016;-60
2021/04/28 22:29:11;;;;;;;29.20;17.65;;;13.50;70.70;;;;;;5051611;28;20032;-60
2021/04/28 22:31:37;;;;;;;31.95;17.80;;;13.50;70.70;;;;;;5046582;28;20112;-65
2021/04/28 22:34:03;;;;;;;32.20;17.95;;;13.50;71.10;;;;;;5047463;28;20508;-61
2021/04/28 22:36:29;;;;;;;30.15;17.50;;;13.50;71.10;;;;;;5046969;28;20482;-61
2021/04/28 22:38:54;;;;;;;32.15;18.77;;;13.40;71.30;;;;;;5049774;28;20040;-61
2021/04/28 22:41:20;;;;;;;31.02;17.52;;;13.40;71.30;;;;;;5051728;28;20102;-61
2021/04/28 22:43:46;;;;;;;31.73;18.73;;;13.50;71.30;;;;;;5050935;28;20043;-61
2021/04/28 22:46:12;;;;;;;30.92;18.63;;;13.50;71.30;;;;;;5051327;28;20033;-61
2021/04/28 22:48:38;;;;;;;33.58;19.65;;;13.40;71.50;;;;;;5051433;28;20025;-64
2021/04/28 22:51:04;;;;;;;33.83;19.10;;;13.40;71.80;;;;;;5048455;28;20026;-60
2021/04/28 22:53:30;;;;;;;29.90;18.42;;;13.40;71.90;;;;;;5048955;28;20552;-60
2021/04/28 22:55:56;;;;;;;32.75;18.48;;;13.30;72.20;;;;;;5044236;28;20104;-60
2021/04/28 22:58:21;;;;;;;32.90;19.10;;;13.30;72.40;;;;;;5047030;28;20025;-61
2021/04/28 23:00:48;;;;;;;33.40;20.15;;;13.20;72.50;;;;;;5046038;28;20112;-59
2021/04/28 23:03:14;;;;;;;34.17;19.33;;;13.20;72.80;;;;;;5046969;28;20033;-61
2021/04/28 23:05:39;;;;;;;34.03;19.95;;;13.20;72.60;;;;;;5049182;28;20437;-60
2021/04/28 23:08:05;;;;;;;32.92;20.30;;;13.20;72.80;;;;;;5046088;28;20024;-61
2021/04/28 23:10:31;;;;;;;32.20;19.67;;;13.20;73.10;;;;;;5050547;28;20029;-61
2021/04/28 23:12:57;;;;;;;32.70;21.05;;;13.10;73.40;;;;;;5048358;28;20045;-60
2021/04/28 23:15:23;;;;;;;34.30;19.65;;;13.10;73.40;;;;;;5049465;28;20033;-59
2021/04/28 23:17:48;;;;;;;34.28;21.48;;;13.10;73.50;;;;;;5048318;28;20264;-63
2021/04/28 23:20:15;;;;;;;35.58;21.88;;;13.10;73.70;;;;;;5048526;28;20032;-62
2021/04/28 23:22:41;;;;;;;39.95;22.75;;;13.10;74.20;;;;;;5050908;28;20025;-63
2021/04/28 23:25:08;;;;;;;39.17;22.48;;;13.00;74.30;;;;;;5047813;28;20083;-61
2021/04/28 23:27:34;;;;;;;36.55;22.40;;;13.00;74.40;;;;;;5045633;28;20033;-61
2021/04/28 23:30:01;;;;;;;35.05;22.13;;;12.90;74.90;;;;;;5045081;28;20036;-62
2021/04/28 23:32:27;;;;;;;36.08;23.33;;;12.90;75.10;;;;;;5039185;28;20037;-61
2021/04/28 23:34:52;;;;;;;35.63;21.92;;;12.90;75.10;;;;;;5034900;28;20029;-61
2021/04/28 23:37:18;;;;;;;33.90;22.40;;;12.90;75.10;;;;;;5046480;28;20029;-60
2021/04/28 23:39:44;;;;;;;35.22;22.35;;;12.90;74.90;;;;;;5035707;28;20025;-61
2021/04/28 23:42:09;;;;;;;35.83;21.90;;;12.90;74.90;;;;;;5033400;28;20034;-61
2021/04/28 23:44:36;;;;;;;34.28;20.80;;;12.90;75.00;;;;;;5035714;28;20025;-61
2021/04/28 23:47:03;;;;;;;33.88;22.90;;;12.80;75.00;;;;;;5033044;28;20074;-62
2021/04/28 23:49:33;;;;;;;36.03;22.45;;;12.80;75.20;;;;;;5036700;28;20025;-62
2021/04/28 23:51:59;;;;;;;36.38;21.85;;;12.80;75.30;;;;;;5051237;28;20501;-62
2021/04/28 23:54:25;;;;;;;31.73;22.13;;;12.70;75.50;;;;;;5049387;28;20032;-61
2021/04/28 23:56:51;;;;;;;34.75;22.15;;;12.80;75.40;;;;;;5044645;28;20024;-60
2021/04/28 23:59:17;;;;;;;35.03;22.77;;;12.80;75.50;;;;;;5052028;28;20026;-61
